Wellfleet, MA (02667)

4:06 AM EDT on September 05, 2015 (GMT -0400)
Wellfleet Marina | | Change Station
CLOSE
Current Station
Personal Weather Station
Location: Wellfleet, MA
Elevation: 5 ft
Nearby Weather Stations

Elev 5 ft 41.93 °N, 70.03 °W | Updated 31 seconds ago

Clear
Clear
56.8 °F
Feels Like 56.8 °F
N
1.0
Wind Variable Wind from ENE
Gusts 3.0 mph

Today
High -- | Low -- °F
--% Chance of Precip.
Yesterday
High -- | Low -- °F
Precip. -- in
6:09 AM 7:07 PM
Waning Gibbous, 51% visible
Pressure 30.23 in
Visibility 10.0 miles
Clouds Clear
Dew Point 55 °F
Humidity 94%
Rainfall 0.00 in
Snow Depth Not available.
UV 0 out of 12
Pollen 8.50 out of 12
Air Quality Not available.
Flu Activity Not available.
METAR KCQX 050752Z AUTO 05004KT 10SM CLR 17/12 A3023 RMK AO2 SLP236 T01670122
Pressure 30.23 in
Visibility 10.0 miles
Clouds Clear
Dew Point 55 °F
Humidity 94%
Rainfall 0.00 in
Snow Depth Not available.
UV 0 out of 12
Pollen 8.50 out of 12
Air Quality Not available.
Flu Activity Not available.
METAR KCQX 050752Z AUTO 05004KT 10SM CLR 17/12 A3023 RMK AO2 SLP236 T01670122

10-Day Weather Forecast

×

Almanac

Astronomy

Sep. 05, 2015 Rise Set
Actual Time
Civil Twilight
Nautical Twilight
Astronomical Twilight
Moon
Length of Visible Light
Length of Day
Tomorrow will be .
, % of the Moon is Illuminated

Today's Extremes

State Highs State Lows

Community

WunderPhotos

Upload Photos

1,852,438 photos uploaded!

WunderBlogs® & News

Nearby

Air Quality

  Air Quality AQ Index Pollutant
Not available.

Snow Depth

Station Depth Elevation

Earthquake Activity

City Distance Mag. Time & Date
Minimum magnitude displayed is 2.5.

Coastal Water Temperatures

Place Temperature

Stations

Nearby Weather Stations

Station Location Temp. Windchill Dew Point Humidity Wind Precip. Elev Updated Type